sensor_id;sensor_type;location;lat;lon;timestamp;temperature;humidity
21734;DHT22;11029;47.820;10.534;2023-08-06T00:01:53;12.00;87.40
21734;DHT22;11029;47.820;10.534;2023-08-06T00:04:21;12.10;87.70
21734;DHT22;11029;47.820;10.534;2023-08-06T00:06:47;12.10;87.20
21734;DHT22;11029;47.820;10.534;2023-08-06T00:09:14;12.10;87.50
21734;DHT22;11029;47.820;10.534;2023-08-06T00:11:41;12.20;87.30
21734;DHT22;11029;47.820;10.534;2023-08-06T00:14:10;12.40;86.70
21734;DHT22;11029;47.820;10.534;2023-08-06T00:16:37;12.50;86.30
21734;DHT22;11029;47.820;10.534;2023-08-06T00:19:03;12.60;86.10
21734;DHT22;11029;47.820;10.534;2023-08-06T00:21:30;12.60;85.70
21734;DHT22;11029;47.820;10.534;2023-08-06T00:23:57;12.60;85.20
21734;DHT22;11029;47.820;10.534;2023-08-06T00:26:24;12.60;85.50
21734;DHT22;11029;47.820;10.534;2023-08-06T00:28:51;12.60;85.10
21734;DHT22;11029;47.820;10.534;2023-08-06T00:31:18;12.60;85.00
21734;DHT22;11029;47.820;10.534;2023-08-06T00:33:44;12.60;85.00
21734;DHT22;11029;47.820;10.534;2023-08-06T00:36:11;12.50;84.90
21734;DHT22;11029;47.820;10.534;2023-08-06T00:38:38;12.60;85.30
21734;DHT22;11029;47.820;10.534;2023-08-06T00:41:05;12.60;85.00
21734;DHT22;11029;47.820;10.534;2023-08-06T00:43:31;12.50;85.20
21734;DHT22;11029;47.820;10.534;2023-08-06T00:45:58;12.50;85.10
21734;DHT22;11029;47.820;10.534;2023-08-06T00:48:25;12.50;85.20
21734;DHT22;11029;47.820;10.534;2023-08-06T00:50:52;12.50;85.40
21734;DHT22;11029;47.820;10.534;2023-08-06T00:53:18;12.40;85.60
21734;DHT22;11029;47.820;10.534;2023-08-06T00:55:45;12.30;85.60
21734;DHT22;11029;47.820;10.534;2023-08-06T00:58:12;12.30;85.70
21734;DHT22;11029;47.820;10.534;2023-08-06T01:00:40;12.30;85.90
21734;DHT22;11029;47.820;10.534;2023-08-06T01:03:07;12.20;85.70
21734;DHT22;11029;47.820;10.534;2023-08-06T01:05:34;12.20;85.90
21734;DHT22;11029;47.820;10.534;2023-08-06T01:10:44;12.30;85.90
21734;DHT22;11029;47.820;10.534;2023-08-06T01:15:55;12.20;86.10
21734;DHT22;11029;47.820;10.534;2023-08-06T01:18:26;12.20;86.00
21734;DHT22;11029;47.820;10.534;2023-08-06T01:20:52;12.20;86.10
21734;DHT22;11029;47.820;10.534;2023-08-06T01:23:19;12.10;86.30
21734;DHT22;11029;47.820;10.534;2023-08-06T01:25:56;12.10;86.70
21734;DHT22;11029;47.820;10.534;2023-08-06T01:29:13;12.40;85.90
21734;DHT22;11029;47.820;10.534;2023-08-06T01:31:16;12.10;86.60
21734;DHT22;11029;47.820;10.534;2023-08-06T01:33:45;12.10;86.20
21734;DHT22;11029;47.820;10.534;2023-08-06T01:36:15;12.00;86.50
21734;DHT22;11029;47.820;10.534;2023-08-06T01:38:42;12.10;86.90
21734;DHT22;11029;47.820;10.534;2023-08-06T01:41:09;12.20;86.90
21734;DHT22;11029;47.820;10.534;2023-08-06T01:43:36;12.20;86.50
21734;DHT22;11029;47.820;10.534;2023-08-06T01:46:03;12.60;85.80
21734;DHT22;11029;47.820;10.534;2023-08-06T01:48:29;12.20;86.00
21734;DHT22;11029;47.820;10.534;2023-08-06T01:50:56;12.10;86.30
21734;DHT22;11029;47.820;10.534;2023-08-06T01:53:23;12.20;86.40
21734;DHT22;11029;47.820;10.534;2023-08-06T01:55:51;12.20;86.30
21734;DHT22;11029;47.820;10.534;2023-08-06T01:58:18;12.20;85.80
21734;DHT22;11029;47.820;10.534;2023-08-06T02:00:45;12.20;86.10
21734;DHT22;11029;47.820;10.534;2023-08-06T02:03:11;12.20;85.70
21734;DHT22;11029;47.820;10.534;2023-08-06T02:05:39;12.20;85.50
21734;DHT22;11029;47.820;10.534;2023-08-06T02:08:07;12.30;85.70
21734;DHT22;11029;47.820;10.534;2023-08-06T02:10:34;12.30;85.40
21734;DHT22;11029;47.820;10.534;2023-08-06T02:13:01;12.30;85.10
21734;DHT22;11029;47.820;10.534;2023-08-06T02:15:27;12.40;85.00
21734;DHT22;11029;47.820;10.534;2023-08-06T02:17:54;12.40;85.10
21734;DHT22;11029;47.820;10.534;2023-08-06T02:20:21;12.30;84.70
21734;DHT22;11029;47.820;10.534;2023-08-06T02:22:48;12.20;84.30
21734;DHT22;11029;47.820;10.534;2023-08-06T02:25:14;12.10;85.00
21734;DHT22;11029;47.820;10.534;2023-08-06T02:27:42;12.20;85.10
21734;DHT22;11029;47.820;10.534;2023-08-06T02:30:09;12.20;84.70
21734;DHT22;11029;47.820;10.534;2023-08-06T02:32:38;12.10;84.60
21734;DHT22;11029;47.820;10.534;2023-08-06T02:35:05;12.10;84.50
21734;DHT22;11029;47.820;10.534;2023-08-06T02:37:35;12.10;84.70
21734;DHT22;11029;47.820;10.534;2023-08-06T02:40:02;12.10;84.80
21734;DHT22;11029;47.820;10.534;2023-08-06T02:42:29;12.10;84.70
21734;DHT22;11029;47.820;10.534;2023-08-06T02:44:56;12.00;84.70
21734;DHT22;11029;47.820;10.534;2023-08-06T02:47:22;12.10;84.40
21734;DHT22;11029;47.820;10.534;2023-08-06T02:49:50;12.00;84.20
21734;DHT22;11029;47.820;10.534;2023-08-06T02:52:18;11.80;84.90
21734;DHT22;11029;47.820;10.534;2023-08-06T02:54:45;11.80;85.70
21734;DHT22;11029;47.820;10.534;2023-08-06T02:57:13;11.70;86.40
21734;DHT22;11029;47.820;10.534;2023-08-06T02:59:40;11.60;86.60
21734;DHT22;11029;47.820;10.534;2023-08-06T03:02:14;11.70;86.50
21734;DHT22;11029;47.820;10.534;2023-08-06T03:05:04;11.60;86.70
21734;DHT22;11029;47.820;10.534;2023-08-06T03:07:36;11.70;86.70
21734;DHT22;11029;47.820;10.534;2023-08-06T03:10:18;11.70;86.70
21734;DHT22;11029;47.820;10.534;2023-08-06T03:12:48;11.70;86.40
21734;DHT22;11029;47.820;10.534;2023-08-06T03:15:15;11.80;86.10
21734;DHT22;11029;47.820;10.534;2023-08-06T03:17:43;11.80;86.00
21734;DHT22;11029;47.820;10.534;2023-08-06T03:20:11;11.80;85.50
21734;DHT22;11029;47.820;10.534;2023-08-06T03:22:39;11.90;85.40
21734;DHT22;11029;47.820;10.534;2023-08-06T03:25:06;11.90;85.30
21734;DHT22;11029;47.820;10.534;2023-08-06T03:27:35;11.90;85.00
21734;DHT22;11029;47.820;10.534;2023-08-06T03:30:01;12.00;85.00
21734;DHT22;11029;47.820;10.534;2023-08-06T03:32:29;12.00;84.80
21734;DHT22;11029;47.820;10.534;2023-08-06T03:34:57;12.00;84.10
21734;DHT22;11029;47.820;10.534;2023-08-06T03:37:28;12.00;84.10
21734;DHT22;11029;47.820;10.534;2023-08-06T03:39:55;12.00;84.10
21734;DHT22;11029;47.820;10.534;2023-08-06T03:42:21;11.90;83.50
21734;DHT22;11029;47.820;10.534;2023-08-06T03:44:48;11.70;83.90
21734;DHT22;11029;47.820;10.534;2023-08-06T03:47:15;11.70;84.20
21734;DHT22;11029;47.820;10.534;2023-08-06T03:49:42;11.70;84.30
21734;DHT22;11029;47.820;10.534;2023-08-06T03:52:11;11.70;83.70
21734;DHT22;11029;47.820;10.534;2023-08-06T03:54:38;11.60;84.60
21734;DHT22;11029;47.820;10.534;2023-08-06T03:57:05;11.50;84.80
21734;DHT22;11029;47.820;10.534;2023-08-06T03:59:32;11.50;84.90
21734;DHT22;11029;47.820;10.534;2023-08-06T04:01:59;11.50;85.00
21734;DHT22;11029;47.820;10.534;2023-08-06T04:04:26;11.50;84.80
21734;DHT22;11029;47.820;10.534;2023-08-06T04:06:52;11.50;84.30
21734;DHT22;11029;47.820;10.534;2023-08-06T04:09:21;11.40;84.70
21734;DHT22;11029;47.820;10.534;2023-08-06T04:11:48;11.40;84.40
21734;DHT22;11029;47.820;10.534;2023-08-06T04:14:15;11.30;84.60
21734;DHT22;11029;47.820;10.534;2023-08-06T04:16:41;11.40;84.60
21734;DHT22;11029;47.820;10.534;2023-08-06T04:19:08;11.20;84.90
21734;DHT22;11029;47.820;10.534;2023-08-06T04:21:37;11.20;85.40
21734;DHT22;11029;47.820;10.534;2023-08-06T04:24:04;11.20;85.10
21734;DHT22;11029;47.820;10.534;2023-08-06T04:26:31;11.30;85.70
21734;DHT22;11029;47.820;10.534;2023-08-06T04:28:59;11.40;84.80
21734;DHT22;11029;47.820;10.534;2023-08-06T04:31:26;11.50;84.50
21734;DHT22;11029;47.820;10.534;2023-08-06T04:33:53;11.60;83.60
21734;DHT22;11029;47.820;10.534;2023-08-06T04:36:20;11.70;83.10
21734;DHT22;11029;47.820;10.534;2023-08-06T04:38:46;11.80;82.80
21734;DHT22;11029;47.820;10.534;2023-08-06T04:41:14;11.80;82.40
21734;DHT22;11029;47.820;10.534;2023-08-06T04:43:41;11.90;81.40
21734;DHT22;11029;47.820;10.534;2023-08-06T04:46:08;12.00;81.00
21734;DHT22;11029;47.820;10.534;2023-08-06T04:48:35;12.10;81.00
21734;DHT22;11029;47.820;10.534;2023-08-06T04:51:02;12.10;80.70
21734;DHT22;11029;47.820;10.534;2023-08-06T04:53:29;12.20;80.50
21734;DHT22;11029;47.820;10.534;2023-08-06T04:55:55;12.20;80.40
21734;DHT22;11029;47.820;10.534;2023-08-06T04:58:22;12.20;80.50
21734;DHT22;11029;47.820;10.534;2023-08-06T05:00:49;12.30;80.60
21734;DHT22;11029;47.820;10.534;2023-08-06T05:03:15;12.30;80.00
21734;DHT22;11029;47.820;10.534;2023-08-06T05:05:42;12.30;79.80
21734;DHT22;11029;47.820;10.534;2023-08-06T05:08:13;12.30;79.70
21734;DHT22;11029;47.820;10.534;2023-08-06T05:10:41;12.30;79.30
21734;DHT22;11029;47.820;10.534;2023-08-06T05:13:08;12.30;79.20
21734;DHT22;11029;47.820;10.534;2023-08-06T05:15:36;12.40;78.80
21734;DHT22;11029;47.820;10.534;2023-08-06T05:18:03;12.30;78.80
21734;DHT22;11029;47.820;10.534;2023-08-06T05:20:30;12.30;79.40
21734;DHT22;11029;47.820;10.534;2023-08-06T05:22:56;12.20;79.20
21734;DHT22;11029;47.820;10.534;2023-08-06T05:25:23;12.30;78.90
21734;DHT22;11029;47.820;10.534;2023-08-06T05:27:50;12.20;79.40
21734;DHT22;11029;47.820;10.534;2023-08-06T05:30:16;12.30;78.90
21734;DHT22;11029;47.820;10.534;2023-08-06T05:32:43;12.40;79.40
21734;DHT22;11029;47.820;10.534;2023-08-06T05:35:10;12.30;78.30
21734;DHT22;11029;47.820;10.534;2023-08-06T05:37:36;12.20;78.80
21734;DHT22;11029;47.820;10.534;2023-08-06T05:40:03;12.20;78.40
21734;DHT22;11029;47.820;10.534;2023-08-06T05:42:30;12.30;79.20
21734;DHT22;11029;47.820;10.534;2023-08-06T05:44:57;12.30;78.20
21734;DHT22;11029;47.820;10.534;2023-08-06T05:47:24;12.30;78.70
21734;DHT22;11029;47.820;10.534;2023-08-06T05:49:50;12.30;78.60
21734;DHT22;11029;47.820;10.534;2023-08-06T05:52:17;12.30;78.80
21734;DHT22;11029;47.820;10.534;2023-08-06T05:54:44;12.30;78.70
21734;DHT22;11029;47.820;10.534;2023-08-06T05:57:10;12.30;78.60
21734;DHT22;11029;47.820;10.534;2023-08-06T05:59:37;12.30;78.50
21734;DHT22;11029;47.820;10.534;2023-08-06T06:02:04;12.20;79.10
21734;DHT22;11029;47.820;10.534;2023-08-06T06:04:30;12.10;80.20
21734;DHT22;11029;47.820;10.534;2023-08-06T06:06:57;12.10;80.70
21734;DHT22;11029;47.820;10.534;2023-08-06T06:09:24;12.10;80.90
21734;DHT22;11029;47.820;10.534;2023-08-06T06:11:50;12.10;81.10
21734;DHT22;11029;47.820;10.534;2023-08-06T06:14:18;12.20;81.10
21734;DHT22;11029;47.820;10.534;2023-08-06T06:16:45;12.20;80.20
21734;DHT22;11029;47.820;10.534;2023-08-06T06:19:12;12.20;81.40
21734;DHT22;11029;47.820;10.534;2023-08-06T06:21:38;12.10;81.20
21734;DHT22;11029;47.820;10.534;2023-08-06T06:24:05;12.10;81.70
21734;DHT22;11029;47.820;10.534;2023-08-06T06:26:32;12.10;82.10
21734;DHT22;11029;47.820;10.534;2023-08-06T06:28:59;12.10;81.80
21734;DHT22;11029;47.820;10.534;2023-08-06T06:31:26;12.00;82.90
21734;DHT22;11029;47.820;10.534;2023-08-06T06:33:53;12.00;83.20
21734;DHT22;11029;47.820;10.534;2023-08-06T06:36:20;11.80;84.30
21734;DHT22;11029;47.820;10.534;2023-08-06T06:38:47;11.80;84.00
21734;DHT22;11029;47.820;10.534;2023-08-06T06:43:42;11.70;83.30
21734;DHT22;11029;47.820;10.534;2023-08-06T06:46:09;11.70;81.90
21734;DHT22;11029;47.820;10.534;2023-08-06T06:48:36;11.70;82.10
21734;DHT22;11029;47.820;10.534;2023-08-06T06:51:03;11.80;81.40
21734;DHT22;11029;47.820;10.534;2023-08-06T06:53:29;11.80;81.00
21734;DHT22;11029;47.820;10.534;2023-08-06T06:56:03;12.10;79.90
21734;DHT22;11029;47.820;10.534;2023-08-06T06:58:31;11.80;80.60
21734;DHT22;11029;47.820;10.534;2023-08-06T07:00:57;12.00;80.50
21734;DHT22;11029;47.820;10.534;2023-08-06T07:03:24;12.10;79.60
21734;DHT22;11029;47.820;10.534;2023-08-06T07:05:51;12.10;79.50
21734;DHT22;11029;47.820;10.534;2023-08-06T07:08:18;12.10;78.50
21734;DHT22;11029;47.820;10.534;2023-08-06T07:10:44;12.10;78.80
21734;DHT22;11029;47.820;10.534;2023-08-06T07:13:11;12.10;79.40
21734;DHT22;11029;47.820;10.534;2023-08-06T07:15:38;12.00;78.70
21734;DHT22;11029;47.820;10.534;2023-08-06T07:18:05;11.90;77.80
21734;DHT22;11029;47.820;10.534;2023-08-06T07:20:31;11.90;79.00
21734;DHT22;11029;47.820;10.534;2023-08-06T07:22:59;12.00;79.40
21734;DHT22;11029;47.820;10.534;2023-08-06T07:25:26;12.10;79.00
21734;DHT22;11029;47.820;10.534;2023-08-06T07:27:53;12.60;74.20
21734;DHT22;11029;47.820;10.534;2023-08-06T07:30:19;12.20;76.10
21734;DHT22;11029;47.820;10.534;2023-08-06T07:32:46;12.30;78.00
21734;DHT22;11029;47.820;10.534;2023-08-06T07:35:13;12.50;76.90
21734;DHT22;11029;47.820;10.534;2023-08-06T07:37:41;12.70;76.60
21734;DHT22;11029;47.820;10.534;2023-08-06T07:40:08;12.60;74.10
21734;DHT22;11029;47.820;10.534;2023-08-06T07:42:35;12.70;75.20
21734;DHT22;11029;47.820;10.534;2023-08-06T07:45:02;12.80;74.60
21734;DHT22;11029;47.820;10.534;2023-08-06T07:47:28;12.80;74.40
21734;DHT22;11029;47.820;10.534;2023-08-06T07:49:55;12.70;73.30
21734;DHT22;11029;47.820;10.534;2023-08-06T07:52:22;12.50;75.00
21734;DHT22;11029;47.820;10.534;2023-08-06T07:54:49;12.40;74.60
21734;DHT22;11029;47.820;10.534;2023-08-06T07:57:15;12.30;75.20
21734;DHT22;11029;47.820;10.534;2023-08-06T07:59:42;12.40;76.20
21734;DHT22;11029;47.820;10.534;2023-08-06T08:02:09;12.40;75.10
21734;DHT22;11029;47.820;10.534;2023-08-06T08:04:35;12.30;75.50
21734;DHT22;11029;47.820;10.534;2023-08-06T08:07:02;12.40;76.40
21734;DHT22;11029;47.820;10.534;2023-08-06T08:09:29;12.40;75.50
21734;DHT22;11029;47.820;10.534;2023-08-06T08:11:56;12.40;76.70
21734;DHT22;11029;47.820;10.534;2023-08-06T08:14:26;12.40;76.00
21734;DHT22;11029;47.820;10.534;2023-08-06T08:16:53;12.40;75.40
21734;DHT22;11029;47.820;10.534;2023-08-06T08:19:20;12.30;75.50
21734;DHT22;11029;47.820;10.534;2023-08-06T08:21:47;12.30;74.70
21734;DHT22;11029;47.820;10.534;2023-08-06T08:24:14;12.30;76.00
21734;DHT22;11029;47.820;10.534;2023-08-06T08:26:41;12.30;74.50
21734;DHT22;11029;47.820;10.534;2023-08-06T08:29:07;12.30;74.70
21734;DHT22;11029;47.820;10.534;2023-08-06T08:31:34;12.30;75.50
21734;DHT22;11029;47.820;10.534;2023-08-06T08:34:05;12.10;76.90
21734;DHT22;11029;47.820;10.534;2023-08-06T08:36:32;12.00;76.40
21734;DHT22;11029;47.820;10.534;2023-08-06T08:38:59;12.00;77.00
21734;DHT22;11029;47.820;10.534;2023-08-06T08:41:33;12.20;77.40
21734;DHT22;11029;47.820;10.534;2023-08-06T08:44:00;12.50;76.40
21734;DHT22;11029;47.820;10.534;2023-08-06T08:46:30;13.00;77.50
21734;DHT22;11029;47.820;10.534;2023-08-06T08:49:00;12.70;77.50
21734;DHT22;11029;47.820;10.534;2023-08-06T08:51:28;12.30;80.50
21734;DHT22;11029;47.820;10.534;2023-08-06T08:53:55;12.00;80.10
21734;DHT22;11029;47.820;10.534;2023-08-06T08:56:24;11.80;82.00
21734;DHT22;11029;47.820;10.534;2023-08-06T08:58:51;11.60;82.60
21734;DHT22;11029;47.820;10.534;2023-08-06T09:01:20;11.40;82.40
21734;DHT22;11029;47.820;10.534;2023-08-06T09:03:48;11.40;83.20
21734;DHT22;11029;47.820;10.534;2023-08-06T09:06:15;11.40;84.10
21734;DHT22;11029;47.820;10.534;2023-08-06T09:09:20;11.40;83.80
21734;DHT22;11029;47.820;10.534;2023-08-06T09:11:43;11.30;82.90
21734;DHT22;11029;47.820;10.534;2023-08-06T09:14:10;11.40;83.60
21734;DHT22;11029;47.820;10.534;2023-08-06T09:16:37;11.30;83.80
21734;DHT22;11029;47.820;10.534;2023-08-06T09:19:11;11.20;83.60
21734;DHT22;11029;47.820;10.534;2023-08-06T09:21:40;11.10;83.90
21734;DHT22;11029;47.820;10.534;2023-08-06T09:24:07;11.10;84.20
21734;DHT22;11029;47.820;10.534;2023-08-06T09:26:34;11.20;84.40
21734;DHT22;11029;47.820;10.534;2023-08-06T09:29:04;11.20;84.20
21734;DHT22;11029;47.820;10.534;2023-08-06T09:31:40;11.20;83.20
21734;DHT22;11029;47.820;10.534;2023-08-06T09:34:11;11.30;83.60
21734;DHT22;11029;47.820;10.534;2023-08-06T09:36:39;11.40;83.50
21734;DHT22;11029;47.820;10.534;2023-08-06T09:39:16;11.50;82.70
21734;DHT22;11029;47.820;10.534;2023-08-06T09:41:43;11.50;83.10
21734;DHT22;11029;47.820;10.534;2023-08-06T09:44:20;11.40;82.80
21734;DHT22;11029;47.820;10.534;2023-08-06T09:46:57;11.40;83.20
21734;DHT22;11029;47.820;10.534;2023-08-06T09:49:28;11.30;83.70
21734;DHT22;11029;47.820;10.534;2023-08-06T09:52:06;11.20;83.70
21734;DHT22;11029;47.820;10.534;2023-08-06T09:54:34;11.30;84.30
21734;DHT22;11029;47.820;10.534;2023-08-06T09:58:12;11.60;84.60
21734;DHT22;11029;47.820;10.534;2023-08-06T10:00:39;11.40;84.10
21734;DHT22;11029;47.820;10.534;2023-08-06T10:03:06;11.30;83.60
21734;DHT22;11029;47.820;10.534;2023-08-06T10:05:34;11.10;84.70
21734;DHT22;11029;47.820;10.534;2023-08-06T10:08:03;11.10;83.90
21734;DHT22;11029;47.820;10.534;2023-08-06T10:10:32;11.00;84.50
21734;DHT22;11029;47.820;10.534;2023-08-06T10:12:59;11.00;84.20
21734;DHT22;11029;47.820;10.534;2023-08-06T10:15:29;11.00;85.20
21734;DHT22;11029;47.820;10.534;2023-08-06T10:17:58;11.00;85.10
21734;DHT22;11029;47.820;10.534;2023-08-06T10:20:26;11.00;85.20
21734;DHT22;11029;47.820;10.534;2023-08-06T10:23:03;11.00;85.60
21734;DHT22;11029;47.820;10.534;2023-08-06T10:25:34;11.00;85.20
21734;DHT22;11029;47.820;10.534;2023-08-06T10:28:09;10.90;85.70
21734;DHT22;11029;47.820;10.534;2023-08-06T10:30:45;10.90;86.50
21734;DHT22;11029;47.820;10.534;2023-08-06T10:33:12;10.90;87.20
21734;DHT22;11029;47.820;10.534;2023-08-06T10:35:44;10.80;86.20
21734;DHT22;11029;47.820;10.534;2023-08-06T10:38:17;10.80;86.60
21734;DHT22;11029;47.820;10.534;2023-08-06T10:43:35;10.80;86.40
21734;DHT22;11029;47.820;10.534;2023-08-06T10:46:03;10.80;86.20
21734;DHT22;11029;47.820;10.534;2023-08-06T10:51:00;11.00;86.90
21734;DHT22;11029;47.820;10.534;2023-08-06T10:53:27;11.00;86.20
21734;DHT22;11029;47.820;10.534;2023-08-06T10:55:58;11.00;86.60
21734;DHT22;11029;47.820;10.534;2023-08-06T10:58:24;11.00;86.80
21734;DHT22;11029;47.820;10.534;2023-08-06T11:00:51;11.10;86.50
21734;DHT22;11029;47.820;10.534;2023-08-06T11:03:18;11.10;85.90
21734;DHT22;11029;47.820;10.534;2023-08-06T11:05:49;11.20;85.80
21734;DHT22;11029;47.820;10.534;2023-08-06T11:08:33;11.20;86.10
21734;DHT22;11029;47.820;10.534;2023-08-06T11:13:37;11.40;86.60
21734;DHT22;11029;47.820;10.534;2023-08-06T11:16:05;11.40;87.50
21734;DHT22;11029;47.820;10.534;2023-08-06T11:18:33;11.50;86.80
21734;DHT22;11029;47.820;10.534;2023-08-06T11:21:01;11.50;86.20
21734;DHT22;11029;47.820;10.534;2023-08-06T11:23:28;11.40;84.40
21734;DHT22;11029;47.820;10.534;2023-08-06T11:25:56;11.40;85.60
21734;DHT22;11029;47.820;10.534;2023-08-06T11:28:24;11.50;84.70
21734;DHT22;11029;47.820;10.534;2023-08-06T11:30:51;11.80;85.60
21734;DHT22;11029;47.820;10.534;2023-08-06T11:33:23;11.90;84.40
21734;DHT22;11029;47.820;10.534;2023-08-06T11:35:53;12.00;83.60
21734;DHT22;11029;47.820;10.534;2023-08-06T11:38:20;12.10;83.90
21734;DHT22;11029;47.820;10.534;2023-08-06T11:40:47;12.00;83.20
21734;DHT22;11029;47.820;10.534;2023-08-06T11:43:14;11.90;83.50
21734;DHT22;11029;47.820;10.534;2023-08-06T11:45:41;11.90;82.90
21734;DHT22;11029;47.820;10.534;2023-08-06T11:48:09;12.00;83.00
21734;DHT22;11029;47.820;10.534;2023-08-06T11:50:39;12.10;84.50
21734;DHT22;11029;47.820;10.534;2023-08-06T11:53:06;12.10;83.20
21734;DHT22;11029;47.820;10.534;2023-08-06T11:55:33;12.00;83.00
21734;DHT22;11029;47.820;10.534;2023-08-06T11:58:03;12.20;82.50
21734;DHT22;11029;47.820;10.534;2023-08-06T12:00:33;12.30;82.80
21734;DHT22;11029;47.820;10.534;2023-08-06T12:03:00;12.50;84.10
21734;DHT22;11029;47.820;10.534;2023-08-06T12:05:30;12.50;82.20
21734;DHT22;11029;47.820;10.534;2023-08-06T12:08:01;12.20;81.70
21734;DHT22;11029;47.820;10.534;2023-08-06T12:10:29;11.90;82.90
21734;DHT22;11029;47.820;10.534;2023-08-06T12:12:56;11.80;82.50
21734;DHT22;11029;47.820;10.534;2023-08-06T12:15:23;11.80;82.10
21734;DHT22;11029;47.820;10.534;2023-08-06T12:17:51;11.80;82.90
21734;DHT22;11029;47.820;10.534;2023-08-06T12:20:18;11.80;82.10
21734;DHT22;11029;47.820;10.534;2023-08-06T12:22:45;11.80;81.90
21734;DHT22;11029;47.820;10.534;2023-08-06T12:25:13;11.90;81.50
21734;DHT22;11029;47.820;10.534;2023-08-06T12:27:44;11.90;81.60
21734;DHT22;11029;47.820;10.534;2023-08-06T12:32:40;12.20;80.80
21734;DHT22;11029;47.820;10.534;2023-08-06T12:35:07;11.90;80.70
21734;DHT22;11029;47.820;10.534;2023-08-06T12:37:35;11.80;80.90
21734;DHT22;11029;47.820;10.534;2023-08-06T12:40:02;11.80;81.20
21734;DHT22;11029;47.820;10.534;2023-08-06T12:42:50;11.70;80.30
21734;DHT22;11029;47.820;10.534;2023-08-06T12:45:17;11.70;80.30
21734;DHT22;11029;47.820;10.534;2023-08-06T12:47:47;11.60;80.50
21734;DHT22;11029;47.820;10.534;2023-08-06T12:50:15;11.60;81.50
21734;DHT22;11029;47.820;10.534;2023-08-06T12:52:43;11.50;81.90
21734;DHT22;11029;47.820;10.534;2023-08-06T12:55:10;11.50;83.00
21734;DHT22;11029;47.820;10.534;2023-08-06T12:57:37;11.40;82.60
21734;DHT22;11029;47.820;10.534;2023-08-06T13:00:22;11.40;82.70
21734;DHT22;11029;47.820;10.534;2023-08-06T13:02:49;11.30;83.80
21734;DHT22;11029;47.820;10.534;2023-08-06T13:05:16;11.30;84.50
21734;DHT22;11029;47.820;10.534;2023-08-06T13:07:43;11.40;84.60
21734;DHT22;11029;47.820;10.534;2023-08-06T13:10:10;11.30;84.60
21734;DHT22;11029;47.820;10.534;2023-08-06T13:12:36;11.30;85.10
21734;DHT22;11029;47.820;10.534;2023-08-06T13:16:40;11.60;83.10
21734;DHT22;11029;47.820;10.534;2023-08-06T13:19:07;11.20;85.00
21734;DHT22;11029;47.820;10.534;2023-08-06T13:24:07;11.30;84.90
21734;DHT22;11029;47.820;10.534;2023-08-06T13:26:34;11.30;84.50
21734;DHT22;11029;47.820;10.534;2023-08-06T13:29:01;11.30;84.60
21734;DHT22;11029;47.820;10.534;2023-08-06T13:31:29;11.30;84.70
21734;DHT22;11029;47.820;10.534;2023-08-06T13:33:56;11.30;83.80
21734;DHT22;11029;47.820;10.534;2023-08-06T13:36:26;11.40;84.60
21734;DHT22;11029;47.820;10.534;2023-08-06T13:38:53;11.40;83.90
21734;DHT22;11029;47.820;10.534;2023-08-06T13:41:20;11.30;84.50
21734;DHT22;11029;47.820;10.534;2023-08-06T13:43:47;11.40;84.50
21734;DHT22;11029;47.820;10.534;2023-08-06T13:46:14;11.40;84.10
21734;DHT22;11029;47.820;10.534;2023-08-06T13:48:46;11.40;84.40
21734;DHT22;11029;47.820;10.534;2023-08-06T13:51:13;11.40;84.90
21734;DHT22;11029;47.820;10.534;2023-08-06T13:53:40;11.40;84.60
21734;DHT22;11029;47.820;10.534;2023-08-06T13:56:08;11.40;84.60
21734;DHT22;11029;47.820;10.534;2023-08-06T13:58:39;11.40;84.60
21734;DHT22;11029;47.820;10.534;2023-08-06T14:01:06;11.50;84.20
21734;DHT22;11029;47.820;10.534;2023-08-06T14:03:33;11.50;84.00
21734;DHT22;11029;47.820;10.534;2023-08-06T14:06:00;11.40;84.50
21734;DHT22;11029;47.820;10.534;2023-08-06T14:08:27;11.40;84.00
21734;DHT22;11029;47.820;10.534;2023-08-06T14:10:54;11.40;84.60
21734;DHT22;11029;47.820;10.534;2023-08-06T14:13:22;11.30;85.10
21734;DHT22;11029;47.820;10.534;2023-08-06T14:15:49;11.30;85.60
21734;DHT22;11029;47.820;10.534;2023-08-06T14:18:16;11.30;85.70
21734;DHT22;11029;47.820;10.534;2023-08-06T14:20:44;11.20;85.80
21734;DHT22;11029;47.820;10.534;2023-08-06T14:23:11;11.20;86.30
21734;DHT22;11029;47.820;10.534;2023-08-06T14:25:38;11.30;85.90
21734;DHT22;11029;47.820;10.534;2023-08-06T14:28:06;11.40;85.90
21734;DHT22;11029;47.820;10.534;2023-08-06T14:30:34;11.50;85.50
21734;DHT22;11029;47.820;10.534;2023-08-06T14:33:02;11.50;84.50
21734;DHT22;11029;47.820;10.534;2023-08-06T14:35:49;11.60;85.10
21734;DHT22;11029;47.820;10.534;2023-08-06T14:38:16;11.60;84.10
21734;DHT22;11029;47.820;10.534;2023-08-06T14:40:44;11.60;84.10
21734;DHT22;11029;47.820;10.534;2023-08-06T14:43:10;11.60;85.40
21734;DHT22;11029;47.820;10.534;2023-08-06T14:45:41;11.60;84.10
21734;DHT22;11029;47.820;10.534;2023-08-06T14:48:08;11.50;84.10
21734;DHT22;11029;47.820;10.534;2023-08-06T14:50:35;11.40;85.40
21734;DHT22;11029;47.820;10.534;2023-08-06T14:53:02;11.50;86.20
21734;DHT22;11029;47.820;10.534;2023-08-06T14:55:31;11.50;85.30
21734;DHT22;11029;47.820;10.534;2023-08-06T14:58:00;11.50;85.60
21734;DHT22;11029;47.820;10.534;2023-08-06T15:00:27;11.50;84.60
21734;DHT22;11029;47.820;10.534;2023-08-06T15:02:54;11.60;84.10
21734;DHT22;11029;47.820;10.534;2023-08-06T15:05:21;11.60;82.90
21734;DHT22;11029;47.820;10.534;2023-08-06T15:07:48;11.50;83.50
21734;DHT22;11029;47.820;10.534;2023-08-06T15:10:15;11.50;83.30
21734;DHT22;11029;47.820;10.534;2023-08-06T15:12:45;11.50;84.00
21734;DHT22;11029;47.820;10.534;2023-08-06T15:15:12;11.60;83.70
21734;DHT22;11029;47.820;10.534;2023-08-06T15:17:39;11.70;84.50
21734;DHT22;11029;47.820;10.534;2023-08-06T15:20:06;11.70;84.30
21734;DHT22;11029;47.820;10.534;2023-08-06T15:22:33;11.70;84.20
21734;DHT22;11029;47.820;10.534;2023-08-06T15:25:00;11.70;84.20
21734;DHT22;11029;47.820;10.534;2023-08-06T15:27:28;11.70;82.90
21734;DHT22;11029;47.820;10.534;2023-08-06T15:29:54;11.70;84.00
21734;DHT22;11029;47.820;10.534;2023-08-06T15:32:21;11.50;82.60
21734;DHT22;11029;47.820;10.534;2023-08-06T15:34:50;11.50;83.90
21734;DHT22;11029;47.820;10.534;2023-08-06T15:37:17;11.40;82.60
21734;DHT22;11029;47.820;10.534;2023-08-06T15:39:45;11.40;82.90
21734;DHT22;11029;47.820;10.534;2023-08-06T15:42:12;11.40;81.10
21734;DHT22;11029;47.820;10.534;2023-08-06T15:44:39;11.40;81.70